createdAt,value
2022-08-07T00:07:58.189Z,18.75
2022-08-07T00:23:08.127Z,18.56
2022-08-07T00:38:14.292Z,18.38
2022-08-07T00:53:21.416Z,18.25
2022-08-07T01:08:27.965Z,18.06
2022-08-07T01:23:38.485Z,17.81
2022-08-07T01:38:45.256Z,17.69
2022-08-07T01:54:09.938Z,17.56
2022-08-07T02:09:33.930Z,17.44
2022-08-07T02:24:48.796Z,17.25
2022-08-07T02:40:11.708Z,17.06
2022-08-07T02:55:28.483Z,16.94
2022-08-07T03:10:50.888Z,16.94
2022-08-07T03:25:59.881Z,16.75
2022-08-07T03:41:06.198Z,16.63
2022-08-07T03:56:32.773Z,16.56
2022-08-07T04:12:23.946Z,16.50
2022-08-07T04:27:06.462Z,16.50
2022-08-07T04:42:31.052Z,16.50
2022-08-07T04:58:09.707Z,16.44
2022-08-07T05:14:52.713Z,16.69
2022-08-07T05:28:48.580Z,16.75
2022-08-07T05:44:08.093Z,17.06
2022-08-07T05:59:21.165Z,17.25
2022-08-07T06:14:28.904Z,17.44
2022-08-07T06:29:38.769Z,18.00
2022-08-07T06:44:46.079Z,18.38
2022-08-07T07:00:13.715Z,19.00
2022-08-07T07:15:35.729Z,19.56
2022-08-07T07:30:50.603Z,20.00
2022-08-07T07:46:38.021Z,20.50
2022-08-07T08:02:03.023Z,20.94
2022-08-07T08:16:50.906Z,21.25
2022-08-07T08:31:59.011Z,21.56
2022-08-07T08:47:31.059Z,21.88
2022-08-07T09:03:01.018Z,22.44
2022-08-07T09:18:37.762Z,22.31
2022-08-07T09:33:58.007Z,22.44
2022-08-07T09:50:02.148Z,22.31
2022-08-07T10:05:12.637Z,22.56
2022-08-07T10:20:30.530Z,22.81
2022-08-07T10:36:05.553Z,23.19
2022-08-07T10:51:39.609Z,23.00
2022-08-07T11:06:57.544Z,22.94
2022-08-07T11:22:18.871Z,22.63
2022-08-07T11:38:12.463Z,23.44
2022-08-07T11:53:35.268Z,23.88
2022-08-07T12:08:47.387Z,23.94
2022-08-07T12:24:37.066Z,24.19
2022-08-07T12:39:43.761Z,24.06
2022-08-07T12:55:05.102Z,23.75
2022-08-07T13:10:38.955Z,24.13
2022-08-07T13:26:00.856Z,23.81
2022-08-07T13:41:14.324Z,23.94
2022-08-07T13:56:36.342Z,23.75
2022-08-07T14:12:01.015Z,23.75
2022-08-07T14:28:09.681Z,23.81
2022-08-07T14:43:55.240Z,23.50
2022-08-07T14:58:07.168Z,23.19
2022-08-07T15:13:35.886Z,23.63
2022-08-07T15:44:15.385Z,23.50
2022-08-07T15:59:39.498Z,22.38
2022-08-07T16:15:57.484Z,22.19
2022-08-07T16:30:56.331Z,22.31
2022-08-07T17:02:03.246Z,22.06
2022-08-07T17:17:21.651Z,22.00
2022-08-07T17:32:35.466Z,21.75
2022-08-07T17:47:54.093Z,21.94
2022-08-07T18:03:05.261Z,21.69
2022-08-07T18:18:46.259Z,21.44
2022-08-07T18:34:37.617Z,21.38
2022-08-07T18:50:31.210Z,21.31
2022-08-07T19:06:02.543Z,21.25
2022-08-07T19:21:09.159Z,21.13
2022-08-07T19:36:28.064Z,20.94
2022-08-07T19:51:52.680Z,20.88
2022-08-07T20:07:03.546Z,20.81
2022-08-07T20:22:29.156Z,20.75
2022-08-07T20:37:57.833Z,20.75
2022-08-07T20:53:06.800Z,20.56
2022-08-07T21:08:16.640Z,20.44
2022-08-07T21:23:49.394Z,20.25
2022-08-07T21:39:45.935Z,20.13
2022-08-07T21:54:48.801Z,19.88
2022-08-07T22:10:02.320Z,19.69
2022-08-07T22:25:13.728Z,19.63
2022-08-07T22:40:37.236Z,19.56
2022-08-07T22:56:00.830Z,19.25
2022-08-07T23:11:18.910Z,19.25
2022-08-07T23:26:27.624Z,19.06
2022-08-07T23:42:04.818Z,19.06
2022-08-07T23:57:22.906Z,18.81
